Homer, OH (43027)

7:14 AM EST on November 27, 2014 (GMT -0500)
Homer | Change Station
CLOSE
Current Station
Personal Weather Station
Location: Utica, OH
Elevation: 1033 ft
Nearby Weather Stations

Elev 1033 ft 40.25 °N, 82.56 °W | Updated 13 minutes ago

Overcast
Overcast
30.2 °F
Feels Like 30 °F
N
0.0
Wind Variable Wind from NW
Gusts 5.0 mph

Today
High -- | Low -- °F
--% Chance of Precip.
Yesterday
High -- | Low -- °F
Precip. -- in
7:29 AM 5:05 PM
Waxing Crescent, 29% visible
Pressure 30.06 in
Visibility 5.0 miles
Clouds Overcast 900 ft
Windchill 30 °F
Dew Point 28 °F
Humidity 90%
Rainfall -999.00 in
Snow Depth Not available.
UV 0 out of 12
Pollen .10 out of 12
Air Quality Not available.
Flu Activity Not available.
METAR K4I3 271135Z AUTO 31009KT 5SM BR OVC009 M01/M02 A3006 RMK AO2

More Conditions Fewer Conditions

Pressure 30.06 in
Visibility 5.0 miles
Clouds Overcast 900 ft
Windchill 30 °F
Dew Point 28 °F
Humidity 90%
Rainfall -999.00 in
Snow Depth Not available.
UV 0 out of 12
Pollen .10 out of 12
Air Quality Not available.
Flu Activity Not available.
METAR K4I3 271135Z AUTO 31009KT 5SM BR OVC009 M01/M02 A3006 RMK AO2

More Conditions Fewer Conditions

10-Day Weather Forecast

Almanac

Astronomy

Nov. 27, 2014 Rise Set
Actual Time
Civil Twilight
Nautical Twilight
Astronomical Twilight
Moon
Length of Visible Light
Length of Day
Tomorrow will be .
, % of the Moon is Illuminated

Today's Extremes

State Highs State Lows

Community

WunderPhotos

Upload Photos

1,773,975 photos uploaded!

WunderBlogs® & News

Nearby

Air Quality

  Air Quality AQ Index Pollutant
Not available.

Snow Depth

Station Depth Elevation

Earthquake Activity

City Distance Mag. Time & Date
Minimum magnitude displayed is 2.5.

Coastal Water Temperatures

Place Temperature

Nearby Weather Stations